sensor_id;sensor_type;location;lat;lon;timestamp;temperature;humidity
43679;DHT22;29279;50.858;4.392;2023-01-15T00:00:59;9.00;99.90
43679;DHT22;29279;50.858;4.392;2023-01-15T00:03:25;9.10;99.90
43679;DHT22;29279;50.858;4.392;2023-01-15T00:05:51;9.00;99.90
43679;DHT22;29279;50.858;4.392;2023-01-15T00:08:17;9.00;99.90
43679;DHT22;29279;50.858;4.392;2023-01-15T00:10:42;9.00;99.90
43679;DHT22;29279;50.858;4.392;2023-01-15T00:13:08;9.00;99.90
43679;DHT22;29279;50.858;4.392;2023-01-15T00:15:34;9.00;99.90
43679;DHT22;29279;50.858;4.392;2023-01-15T00:18:00;9.10;99.90
43679;DHT22;29279;50.858;4.392;2023-01-15T00:20:26;9.30;99.90
43679;DHT22;29279;50.858;4.392;2023-01-15T00:22:52;9.40;99.90
43679;DHT22;29279;50.858;4.392;2023-01-15T00:25:18;9.50;99.90
43679;DHT22;29279;50.858;4.392;2023-01-15T00:28:02;9.50;99.90
43679;DHT22;29279;50.858;4.392;2023-01-15T00:30:28;9.50;99.90
43679;DHT22;29279;50.858;4.392;2023-01-15T00:32:54;9.50;99.90
43679;DHT22;29279;50.858;4.392;2023-01-15T00:35:22;9.40;99.90
43679;DHT22;29279;50.858;4.392;2023-01-15T00:37:48;9.30;99.90
43679;DHT22;29279;50.858;4.392;2023-01-15T00:40:15;9.20;99.90
43679;DHT22;29279;50.858;4.392;2023-01-15T00:42:41;9.10;99.90
43679;DHT22;29279;50.858;4.392;2023-01-15T00:45:08;9.10;99.90
43679;DHT22;29279;50.858;4.392;2023-01-15T00:47:36;9.10;99.90
43679;DHT22;29279;50.858;4.392;2023-01-15T00:50:03;9.10;99.90
43679;DHT22;29279;50.858;4.392;2023-01-15T00:52:29;9.20;99.90
43679;DHT22;29279;50.858;4.392;2023-01-15T00:54:55;9.20;99.90
43679;DHT22;29279;50.858;4.392;2023-01-15T00:57:21;9.20;99.90
43679;DHT22;29279;50.858;4.392;2023-01-15T00:59:47;9.20;99.90
43679;DHT22;29279;50.858;4.392;2023-01-15T01:02:12;9.20;99.90
43679;DHT22;29279;50.858;4.392;2023-01-15T01:04:38;9.20;99.90
43679;DHT22;29279;50.858;4.392;2023-01-15T01:07:04;9.20;99.90
43679;DHT22;29279;50.858;4.392;2023-01-15T01:09:29;9.20;99.90
43679;DHT22;29279;50.858;4.392;2023-01-15T01:11:55;9.20;99.90
43679;DHT22;29279;50.858;4.392;2023-01-15T01:14:21;9.20;99.90
43679;DHT22;29279;50.858;4.392;2023-01-15T01:16:47;9.10;99.90
43679;DHT22;29279;50.858;4.392;2023-01-15T01:19:19;9.10;99.90
43679;DHT22;29279;50.858;4.392;2023-01-15T01:21:46;9.10;99.90
43679;DHT22;29279;50.858;4.392;2023-01-15T01:24:15;9.10;99.90
43679;DHT22;29279;50.858;4.392;2023-01-15T01:26:41;9.20;99.90
43679;DHT22;29279;50.858;4.392;2023-01-15T01:29:16;9.20;99.90
43679;DHT22;29279;50.858;4.392;2023-01-15T01:31:42;9.20;99.90
43679;DHT22;29279;50.858;4.392;2023-01-15T01:34:08;9.20;99.90
43679;DHT22;29279;50.858;4.392;2023-01-15T01:36:36;9.20;99.90
43679;DHT22;29279;50.858;4.392;2023-01-15T01:39:04;9.10;99.90
43679;DHT22;29279;50.858;4.392;2023-01-15T01:41:30;9.20;99.90
43679;DHT22;29279;50.858;4.392;2023-01-15T01:44:04;9.20;99.90
43679;DHT22;29279;50.858;4.392;2023-01-15T01:46:32;9.10;99.90
43679;DHT22;29279;50.858;4.392;2023-01-15T01:49:05;9.10;99.90
43679;DHT22;29279;50.858;4.392;2023-01-15T01:51:57;9.10;99.90
43679;DHT22;29279;50.858;4.392;2023-01-15T01:54:25;9.20;99.90
43679;DHT22;29279;50.858;4.392;2023-01-15T01:56:53;9.20;99.90
43679;DHT22;29279;50.858;4.392;2023-01-15T01:59:20;9.20;99.90
43679;DHT22;29279;50.858;4.392;2023-01-15T02:01:47;9.20;99.90
43679;DHT22;29279;50.858;4.392;2023-01-15T02:04:14;9.20;99.90
43679;DHT22;29279;50.858;4.392;2023-01-15T02:06:41;9.10;99.90
43679;DHT22;29279;50.858;4.392;2023-01-15T02:09:07;9.00;99.90
43679;DHT22;29279;50.858;4.392;2023-01-15T02:11:34;8.90;99.90
43679;DHT22;29279;50.858;4.392;2023-01-15T02:14:23;8.90;99.90
43679;DHT22;29279;50.858;4.392;2023-01-15T02:17:15;8.70;99.90
43679;DHT22;29279;50.858;4.392;2023-01-15T02:22:33;8.60;99.90
43679;DHT22;29279;50.858;4.392;2023-01-15T02:25:09;8.60;99.90
43679;DHT22;29279;50.858;4.392;2023-01-15T02:27:42;8.60;99.90
43679;DHT22;29279;50.858;4.392;2023-01-15T02:30:13;8.60;99.90
43679;DHT22;29279;50.858;4.392;2023-01-15T02:38:13;8.60;99.90
43679;DHT22;29279;50.858;4.392;2023-01-15T02:40:41;8.50;99.90
43679;DHT22;29279;50.858;4.392;2023-01-15T02:43:08;8.60;99.90
43679;DHT22;29279;50.858;4.392;2023-01-15T02:45:37;8.60;99.90
43679;DHT22;29279;50.858;4.392;2023-01-15T02:48:15;8.60;99.90
43679;DHT22;29279;50.858;4.392;2023-01-15T02:50:46;8.50;99.90
43679;DHT22;29279;50.858;4.392;2023-01-15T02:53:17;8.40;99.90
43679;DHT22;29279;50.858;4.392;2023-01-15T02:55:48;8.40;99.90
43679;DHT22;29279;50.858;4.392;2023-01-15T02:58:18;8.30;99.90
43679;DHT22;29279;50.858;4.392;2023-01-15T03:00:47;8.30;99.90
43679;DHT22;29279;50.858;4.392;2023-01-15T03:03:24;8.20;99.90
43679;DHT22;29279;50.858;4.392;2023-01-15T03:06:16;8.20;99.90
43679;DHT22;29279;50.858;4.392;2023-01-15T03:08:43;8.20;99.90
43679;DHT22;29279;50.858;4.392;2023-01-15T03:11:11;8.20;99.90
43679;DHT22;29279;50.858;4.392;2023-01-15T03:16:46;8.20;99.90
43679;DHT22;29279;50.858;4.392;2023-01-15T03:19:29;8.10;99.90
43679;DHT22;29279;50.858;4.392;2023-01-15T03:22:20;8.10;99.90
43679;DHT22;29279;50.858;4.392;2023-01-15T03:24:49;8.10;99.90
43679;DHT22;29279;50.858;4.392;2023-01-15T03:27:16;8.10;99.90
43679;DHT22;29279;50.858;4.392;2023-01-15T03:29:45;8.20;99.90
43679;DHT22;29279;50.858;4.392;2023-01-15T03:32:11;8.20;99.90
43679;DHT22;29279;50.858;4.392;2023-01-15T03:34:41;8.30;99.90
43679;DHT22;29279;50.858;4.392;2023-01-15T03:37:08;8.20;99.90
43679;DHT22;29279;50.858;4.392;2023-01-15T03:39:37;8.20;99.90
43679;DHT22;29279;50.858;4.392;2023-01-15T03:44:43;8.00;99.90
43679;DHT22;29279;50.858;4.392;2023-01-15T03:47:15;8.00;99.90
43679;DHT22;29279;50.858;4.392;2023-01-15T03:49:54;8.00;99.90
43679;DHT22;29279;50.858;4.392;2023-01-15T03:57:48;7.80;99.90
43679;DHT22;29279;50.858;4.392;2023-01-15T04:03:25;7.90;99.90
43679;DHT22;29279;50.858;4.392;2023-01-15T04:05:54;7.80;99.90
43679;DHT22;29279;50.858;4.392;2023-01-15T04:08:21;7.80;99.90
43679;DHT22;29279;50.858;4.392;2023-01-15T04:10:52;7.80;99.90
43679;DHT22;29279;50.858;4.392;2023-01-15T04:13:18;7.70;99.90
43679;DHT22;29279;50.858;4.392;2023-01-15T04:15:44;7.70;99.90
43679;DHT22;29279;50.858;4.392;2023-01-15T04:18:09;7.70;99.90
43679;DHT22;29279;50.858;4.392;2023-01-15T04:20:35;7.80;99.90
43679;DHT22;29279;50.858;4.392;2023-01-15T04:23:00;7.80;99.90
43679;DHT22;29279;50.858;4.392;2023-01-15T04:25:26;7.80;99.90
43679;DHT22;29279;50.858;4.392;2023-01-15T04:27:55;7.80;99.90
43679;DHT22;29279;50.858;4.392;2023-01-15T04:30:22;7.60;99.90
43679;DHT22;29279;50.858;4.392;2023-01-15T04:32:48;7.60;99.90
43679;DHT22;29279;50.858;4.392;2023-01-15T04:35:14;7.70;99.90
43679;DHT22;29279;50.858;4.392;2023-01-15T04:37:40;7.60;99.90
43679;DHT22;29279;50.858;4.392;2023-01-15T04:40:07;7.60;99.90
43679;DHT22;29279;50.858;4.392;2023-01-15T04:42:33;7.50;99.90
43679;DHT22;29279;50.858;4.392;2023-01-15T04:45:17;7.50;99.90
43679;DHT22;29279;50.858;4.392;2023-01-15T04:47:42;7.50;99.90
43679;DHT22;29279;50.858;4.392;2023-01-15T04:50:09;7.50;99.90
43679;DHT22;29279;50.858;4.392;2023-01-15T04:52:37;7.50;99.90
43679;DHT22;29279;50.858;4.392;2023-01-15T04:55:03;7.40;99.90
43679;DHT22;29279;50.858;4.392;2023-01-15T04:57:29;7.50;99.90
43679;DHT22;29279;50.858;4.392;2023-01-15T04:59:54;7.40;99.90
43679;DHT22;29279;50.858;4.392;2023-01-15T05:02:20;7.40;99.90
43679;DHT22;29279;50.858;4.392;2023-01-15T05:04:47;7.40;99.90
43679;DHT22;29279;50.858;4.392;2023-01-15T05:07:12;7.30;99.90
43679;DHT22;29279;50.858;4.392;2023-01-15T05:09:38;7.30;99.90
43679;DHT22;29279;50.858;4.392;2023-01-15T05:12:04;7.30;99.90
43679;DHT22;29279;50.858;4.392;2023-01-15T05:14:30;7.30;99.90
43679;DHT22;29279;50.858;4.392;2023-01-15T05:16:55;7.30;99.90
43679;DHT22;29279;50.858;4.392;2023-01-15T05:19:21;7.30;99.90
43679;DHT22;29279;50.858;4.392;2023-01-15T05:21:47;7.20;99.90
43679;DHT22;29279;50.858;4.392;2023-01-15T05:24:14;7.30;99.90
43679;DHT22;29279;50.858;4.392;2023-01-15T05:26:41;7.30;99.90
43679;DHT22;29279;50.858;4.392;2023-01-15T05:29:07;7.30;99.90
43679;DHT22;29279;50.858;4.392;2023-01-15T05:31:32;7.30;99.90
43679;DHT22;29279;50.858;4.392;2023-01-15T05:33:59;7.30;99.90
43679;DHT22;29279;50.858;4.392;2023-01-15T05:36:28;7.20;99.90
43679;DHT22;29279;50.858;4.392;2023-01-15T05:38:55;7.20;99.90
43679;DHT22;29279;50.858;4.392;2023-01-15T05:41:24;7.10;99.90
43679;DHT22;29279;50.858;4.392;2023-01-15T05:44:10;7.00;99.90
43679;DHT22;29279;50.858;4.392;2023-01-15T05:46:38;7.00;99.90
43679;DHT22;29279;50.858;4.392;2023-01-15T05:49:06;7.00;99.90
43679;DHT22;29279;50.858;4.392;2023-01-15T05:51:34;7.00;99.90
43679;DHT22;29279;50.858;4.392;2023-01-15T05:54:01;7.00;99.90
43679;DHT22;29279;50.858;4.392;2023-01-15T05:56:27;7.00;99.90
43679;DHT22;29279;50.858;4.392;2023-01-15T05:58:52;7.00;99.90
43679;DHT22;29279;50.858;4.392;2023-01-15T06:01:18;7.00;99.90
43679;DHT22;29279;50.858;4.392;2023-01-15T06:03:44;6.80;99.90
43679;DHT22;29279;50.858;4.392;2023-01-15T06:06:17;6.60;99.90
43679;DHT22;29279;50.858;4.392;2023-01-15T06:08:43;6.30;99.90
43679;DHT22;29279;50.858;4.392;2023-01-15T06:11:09;6.20;99.90
43679;DHT22;29279;50.858;4.392;2023-01-15T06:13:36;6.10;99.90
43679;DHT22;29279;50.858;4.392;2023-01-15T06:16:02;6.10;99.90
43679;DHT22;29279;50.858;4.392;2023-01-15T06:18:28;6.10;99.90
43679;DHT22;29279;50.858;4.392;2023-01-15T06:20:54;6.10;99.90
43679;DHT22;29279;50.858;4.392;2023-01-15T06:23:19;6.10;99.90
43679;DHT22;29279;50.858;4.392;2023-01-15T06:25:45;6.10;99.90
43679;DHT22;29279;50.858;4.392;2023-01-15T06:28:12;6.00;99.90
43679;DHT22;29279;50.858;4.392;2023-01-15T06:30:38;6.00;99.90
43679;DHT22;29279;50.858;4.392;2023-01-15T06:33:05;6.00;99.90
43679;DHT22;29279;50.858;4.392;2023-01-15T06:35:30;6.00;99.90
43679;DHT22;29279;50.858;4.392;2023-01-15T06:37:56;6.00;99.90
43679;DHT22;29279;50.858;4.392;2023-01-15T06:40:22;6.00;99.90
43679;DHT22;29279;50.858;4.392;2023-01-15T06:42:48;6.10;99.90
43679;DHT22;29279;50.858;4.392;2023-01-15T06:45:37;6.20;99.90
43679;DHT22;29279;50.858;4.392;2023-01-15T06:48:26;6.20;99.90
43679;DHT22;29279;50.858;4.392;2023-01-15T06:50:52;6.20;99.90
43679;DHT22;29279;50.858;4.392;2023-01-15T06:53:18;6.20;99.90
43679;DHT22;29279;50.858;4.392;2023-01-15T06:55:44;6.10;99.90
43679;DHT22;29279;50.858;4.392;2023-01-15T06:58:10;6.00;99.90
43679;DHT22;29279;50.858;4.392;2023-01-15T07:00:36;6.00;99.90
43679;DHT22;29279;50.858;4.392;2023-01-15T07:03:03;6.20;99.90
43679;DHT22;29279;50.858;4.392;2023-01-15T07:05:29;6.20;99.90
43679;DHT22;29279;50.858;4.392;2023-01-15T07:07:56;6.30;99.90
43679;DHT22;29279;50.858;4.392;2023-01-15T07:10:22;6.30;99.90
43679;DHT22;29279;50.858;4.392;2023-01-15T07:12:48;6.20;99.90
43679;DHT22;29279;50.858;4.392;2023-01-15T07:15:14;6.20;99.90
43679;DHT22;29279;50.858;4.392;2023-01-15T07:17:39;6.10;99.90
43679;DHT22;29279;50.858;4.392;2023-01-15T07:20:05;6.10;99.90
43679;DHT22;29279;50.858;4.392;2023-01-15T07:22:31;6.00;99.90
43679;DHT22;29279;50.858;4.392;2023-01-15T07:24:57;5.90;99.90
43679;DHT22;29279;50.858;4.392;2023-01-15T07:27:23;5.90;99.90
43679;DHT22;29279;50.858;4.392;2023-01-15T07:29:48;5.90;99.90
43679;DHT22;29279;50.858;4.392;2023-01-15T07:32:17;6.00;99.90
43679;DHT22;29279;50.858;4.392;2023-01-15T07:34:43;5.90;99.90
43679;DHT22;29279;50.858;4.392;2023-01-15T07:37:09;6.00;99.90
43679;DHT22;29279;50.858;4.392;2023-01-15T07:39:35;5.90;99.90
43679;DHT22;29279;50.858;4.392;2023-01-15T07:42:01;5.90;99.90
43679;DHT22;29279;50.858;4.392;2023-01-15T07:44:45;5.80;99.90
43679;DHT22;29279;50.858;4.392;2023-01-15T07:47:30;5.90;99.90
43679;DHT22;29279;50.858;4.392;2023-01-15T07:50:20;5.90;99.90
43679;DHT22;29279;50.858;4.392;2023-01-15T07:52:46;5.90;99.90
43679;DHT22;29279;50.858;4.392;2023-01-15T07:55:12;5.90;99.90
43679;DHT22;29279;50.858;4.392;2023-01-15T07:57:39;5.90;99.90
43679;DHT22;29279;50.858;4.392;2023-01-15T08:00:08;5.90;99.90
43679;DHT22;29279;50.858;4.392;2023-01-15T08:02:34;5.90;99.90
43679;DHT22;29279;50.858;4.392;2023-01-15T08:05:00;5.90;99.90
43679;DHT22;29279;50.858;4.392;2023-01-15T08:07:25;5.90;99.90
43679;DHT22;29279;50.858;4.392;2023-01-15T08:09:51;5.80;99.90
43679;DHT22;29279;50.858;4.392;2023-01-15T08:12:17;5.90;99.90
43679;DHT22;29279;50.858;4.392;2023-01-15T08:15:01;5.90;99.90
43679;DHT22;29279;50.858;4.392;2023-01-15T08:17:40;5.90;99.90
43679;DHT22;29279;50.858;4.392;2023-01-15T08:22:39;6.00;99.90
43679;DHT22;29279;50.858;4.392;2023-01-15T08:25:07;6.40;99.90
43679;DHT22;29279;50.858;4.392;2023-01-15T08:27:41;6.80;99.90
43679;DHT22;29279;50.858;4.392;2023-01-15T08:30:16;7.30;99.90
43679;DHT22;29279;50.858;4.392;2023-01-15T08:32:42;7.60;99.90
43679;DHT22;29279;50.858;4.392;2023-01-15T08:35:08;7.90;99.90
43679;DHT22;29279;50.858;4.392;2023-01-15T08:37:34;8.10;99.90
43679;DHT22;29279;50.858;4.392;2023-01-15T08:39:59;8.20;99.90
43679;DHT22;29279;50.858;4.392;2023-01-15T08:42:25;8.30;99.90
43679;DHT22;29279;50.858;4.392;2023-01-15T08:44:51;7.90;99.90
43679;DHT22;29279;50.858;4.392;2023-01-15T08:47:17;7.70;99.90
43679;DHT22;29279;50.858;4.392;2023-01-15T08:49:43;8.00;99.90
43679;DHT22;29279;50.858;4.392;2023-01-15T08:52:09;8.40;99.90
43679;DHT22;29279;50.858;4.392;2023-01-15T08:54:34;8.80;99.90
43679;DHT22;29279;50.858;4.392;2023-01-15T08:57:00;9.20;99.90
43679;DHT22;29279;50.858;4.392;2023-01-15T08:59:26;9.40;99.90
43679;DHT22;29279;50.858;4.392;2023-01-15T09:01:52;9.60;99.90
43679;DHT22;29279;50.858;4.392;2023-01-15T09:04:22;9.80;99.90
43679;DHT22;29279;50.858;4.392;2023-01-15T09:06:48;10.10;99.90
43679;DHT22;29279;50.858;4.392;2023-01-15T09:09:14;10.30;99.90
43679;DHT22;29279;50.858;4.392;2023-01-15T09:11:40;10.20;99.90
43679;DHT22;29279;50.858;4.392;2023-01-15T09:14:07;10.20;99.90
43679;DHT22;29279;50.858;4.392;2023-01-15T09:16:37;10.20;99.90
43679;DHT22;29279;50.858;4.392;2023-01-15T09:19:04;10.10;99.90
43679;DHT22;29279;50.858;4.392;2023-01-15T09:21:30;9.80;99.90
43679;DHT22;29279;50.858;4.392;2023-01-15T09:23:57;9.50;99.90
43679;DHT22;29279;50.858;4.392;2023-01-15T09:26:35;9.90;99.90
43679;DHT22;29279;50.858;4.392;2023-01-15T09:29:02;10.30;99.90
43679;DHT22;29279;50.858;4.392;2023-01-15T09:31:29;10.60;99.90
43679;DHT22;29279;50.858;4.392;2023-01-15T09:33:55;10.60;99.90
43679;DHT22;29279;50.858;4.392;2023-01-15T09:36:27;9.60;99.90
43679;DHT22;29279;50.858;4.392;2023-01-15T09:38:54;8.70;99.90
43679;DHT22;29279;50.858;4.392;2023-01-15T09:41:21;8.30;99.90
43679;DHT22;29279;50.858;4.392;2023-01-15T09:44:12;8.00;99.90
43679;DHT22;29279;50.858;4.392;2023-01-15T09:46:48;7.70;99.90
43679;DHT22;29279;50.858;4.392;2023-01-15T09:49:54;7.30;99.90
43679;DHT22;29279;50.858;4.392;2023-01-15T09:57:19;6.80;99.90
43679;DHT22;29279;50.858;4.392;2023-01-15T09:59:48;6.70;99.90
43679;DHT22;29279;50.858;4.392;2023-01-15T10:02:34;6.60;99.90
43679;DHT22;29279;50.858;4.392;2023-01-15T10:06:06;6.70;99.90
43679;DHT22;29279;50.858;4.392;2023-01-15T10:10:53;6.50;99.90
43679;DHT22;29279;50.858;4.392;2023-01-15T10:16:40;6.30;99.90
43679;DHT22;29279;50.858;4.392;2023-01-15T10:19:08;6.30;99.90
43679;DHT22;29279;50.858;4.392;2023-01-15T10:22:16;6.30;99.90
43679;DHT22;29279;50.858;4.392;2023-01-15T10:24:54;6.30;99.90
43679;DHT22;29279;50.858;4.392;2023-01-15T10:27:25;6.30;99.90
43679;DHT22;29279;50.858;4.392;2023-01-15T10:30:00;6.20;99.90
43679;DHT22;29279;50.858;4.392;2023-01-15T10:37:51;6.10;99.90
43679;DHT22;29279;50.858;4.392;2023-01-15T10:40:55;7.60;99.90
43679;DHT22;29279;50.858;4.392;2023-01-15T10:46:33;10.30;99.90
43679;DHT22;29279;50.858;4.392;2023-01-15T10:49:10;10.90;99.90
43679;DHT22;29279;50.858;4.392;2023-01-15T10:52:03;11.40;99.90
43679;DHT22;29279;50.858;4.392;2023-01-15T10:54:41;11.90;99.90
43679;DHT22;29279;50.858;4.392;2023-01-15T10:59:58;11.00;99.90
43679;DHT22;29279;50.858;4.392;2023-01-15T11:03:08;10.10;99.90
43679;DHT22;29279;50.858;4.392;2023-01-15T11:05:34;10.20;99.90
43679;DHT22;29279;50.858;4.392;2023-01-15T11:08:02;9.70;99.90
43679;DHT22;29279;50.858;4.392;2023-01-15T11:10:31;9.20;99.90
43679;DHT22;29279;50.858;4.392;2023-01-15T11:13:19;8.90;99.90
43679;DHT22;29279;50.858;4.392;2023-01-15T11:16:04;8.60;99.90
43679;DHT22;29279;50.858;4.392;2023-01-15T11:18:48;8.30;99.90
43679;DHT22;29279;50.858;4.392;2023-01-15T11:21:32;7.90;99.90
43679;DHT22;29279;50.858;4.392;2023-01-15T11:23:59;7.70;99.90
43679;DHT22;29279;50.858;4.392;2023-01-15T11:26:30;7.50;99.90
43679;DHT22;29279;50.858;4.392;2023-01-15T11:28:58;7.30;99.90
43679;DHT22;29279;50.858;4.392;2023-01-15T11:31:38;7.20;99.90
43679;DHT22;29279;50.858;4.392;2023-01-15T11:34:13;7.20;99.90
43679;DHT22;29279;50.858;4.392;2023-01-15T11:36:41;7.30;99.90
43679;DHT22;29279;50.858;4.392;2023-01-15T11:39:24;7.30;99.90
43679;DHT22;29279;50.858;4.392;2023-01-15T11:41:58;7.40;99.90
43679;DHT22;29279;50.858;4.392;2023-01-15T11:44:53;7.40;99.90
43679;DHT22;29279;50.858;4.392;2023-01-15T11:47:37;7.40;99.90
43679;DHT22;29279;50.858;4.392;2023-01-15T11:50:22;7.40;99.90
43679;DHT22;29279;50.858;4.392;2023-01-15T11:53:14;7.70;99.90
43679;DHT22;29279;50.858;4.392;2023-01-15T11:55:59;7.70;99.90
43679;DHT22;29279;50.858;4.392;2023-01-15T11:58:31;7.90;99.90
43679;DHT22;29279;50.858;4.392;2023-01-15T12:00:58;8.40;99.90
43679;DHT22;29279;50.858;4.392;2023-01-15T12:03:27;8.00;99.90
43679;DHT22;29279;50.858;4.392;2023-01-15T12:06:00;7.70;99.90
43679;DHT22;29279;50.858;4.392;2023-01-15T12:14:10;7.30;99.90
43679;DHT22;29279;50.858;4.392;2023-01-15T12:28:41;7.80;99.90
43679;DHT22;29279;50.858;4.392;2023-01-15T12:31:13;7.60;99.90
43679;DHT22;29279;50.858;4.392;2023-01-15T12:33:45;7.30;99.90
43679;DHT22;29279;50.858;4.392;2023-01-15T12:36:21;7.20;99.90
43679;DHT22;29279;50.858;4.392;2023-01-15T12:39:00;7.20;99.90
43679;DHT22;29279;50.858;4.392;2023-01-15T12:41:28;7.20;99.90
43679;DHT22;29279;50.858;4.392;2023-01-15T12:44:20;7.10;99.90
43679;DHT22;29279;50.858;4.392;2023-01-15T12:47:13;7.20;99.90
43679;DHT22;29279;50.858;4.392;2023-01-15T12:49:48;7.20;99.90
43679;DHT22;29279;50.858;4.392;2023-01-15T12:52:22;7.30;99.90
43679;DHT22;29279;50.858;4.392;2023-01-15T12:55:12;7.40;99.90
43679;DHT22;29279;50.858;4.392;2023-01-15T12:57:43;7.40;99.90
43679;DHT22;29279;50.858;4.392;2023-01-15T13:00:18;7.40;99.90
43679;DHT22;29279;50.858;4.392;2023-01-15T13:02:59;7.40;99.90
43679;DHT22;29279;50.858;4.392;2023-01-15T13:05:48;7.50;99.90
43679;DHT22;29279;50.858;4.392;2023-01-15T13:10:50;7.50;99.90
43679;DHT22;29279;50.858;4.392;2023-01-15T13:13:29;7.40;99.90
43679;DHT22;29279;50.858;4.392;2023-01-15T13:21:34;7.40;99.90
43679;DHT22;29279;50.858;4.392;2023-01-15T13:27:04;7.50;99.90
43679;DHT22;29279;50.858;4.392;2023-01-15T13:32:38;7.60;99.90
43679;DHT22;29279;50.858;4.392;2023-01-15T13:37:53;7.50;99.90
43679;DHT22;29279;50.858;4.392;2023-01-15T13:40:40;7.40;99.90
43679;DHT22;29279;50.858;4.392;2023-01-15T13:46:18;7.40;99.90
43679;DHT22;29279;50.858;4.392;2023-01-15T13:48:48;7.20;99.90
43679;DHT22;29279;50.858;4.392;2023-01-15T13:53:53;7.00;99.90
43679;DHT22;29279;50.858;4.392;2023-01-15T13:56:30;7.00;99.90
43679;DHT22;29279;50.858;4.392;2023-01-15T13:58:58;6.90;99.90
43679;DHT22;29279;50.858;4.392;2023-01-15T14:01:33;7.00;99.90
43679;DHT22;29279;50.858;4.392;2023-01-15T14:06:48;6.80;99.90
43679;DHT22;29279;50.858;4.392;2023-01-15T14:22:34;6.40;99.90
43679;DHT22;29279;50.858;4.392;2023-01-15T14:28:18;6.40;99.90
43679;DHT22;29279;50.858;4.392;2023-01-15T14:36:24;6.30;99.90
43679;DHT22;29279;50.858;4.392;2023-01-15T14:38:54;6.30;99.90
43679;DHT22;29279;50.858;4.392;2023-01-15T14:41:30;6.40;99.90
43679;DHT22;29279;50.858;4.392;2023-01-15T14:43:57;6.50;99.90
43679;DHT22;29279;50.858;4.392;2023-01-15T14:46:32;6.50;99.90
43679;DHT22;29279;50.858;4.392;2023-01-15T14:49:02;6.50;99.90
43679;DHT22;29279;50.858;4.392;2023-01-15T14:51:33;6.40;99.90
43679;DHT22;29279;50.858;4.392;2023-01-15T14:54:08;6.50;99.90
43679;DHT22;29279;50.858;4.392;2023-01-15T14:57:05;6.50;99.90
43679;DHT22;29279;50.858;4.392;2023-01-15T14:59:55;6.40;99.90
43679;DHT22;29279;50.858;4.392;2023-01-15T15:02:25;6.50;99.90
43679;DHT22;29279;50.858;4.392;2023-01-15T15:04:57;6.40;99.90
43679;DHT22;29279;50.858;4.392;2023-01-15T15:07:26;6.40;99.90
43679;DHT22;29279;50.858;4.392;2023-01-15T15:10:13;6.30;99.90
43679;DHT22;29279;50.858;4.392;2023-01-15T15:13:04;6.30;99.90
43679;DHT22;29279;50.858;4.392;2023-01-15T15:21:01;6.30;99.90
43679;DHT22;29279;50.858;4.392;2023-01-15T15:26:51;6.30;99.90
43679;DHT22;29279;50.858;4.392;2023-01-15T15:29:19;6.20;99.90
43679;DHT22;29279;50.858;4.392;2023-01-15T15:31:55;6.20;99.90
43679;DHT22;29279;50.858;4.392;2023-01-15T15:36:51;6.30;99.90
43679;DHT22;29279;50.858;4.392;2023-01-15T15:42:18;6.30;99.90
43679;DHT22;29279;50.858;4.392;2023-01-15T15:45:14;6.20;99.90
43679;DHT22;29279;50.858;4.392;2023-01-15T15:47:58;6.20;99.90
43679;DHT22;29279;50.858;4.392;2023-01-15T15:50:46;6.20;99.90
43679;DHT22;29279;50.858;4.392;2023-01-15T15:53:16;6.10;99.90
43679;DHT22;29279;50.858;4.392;2023-01-15T15:55:44;6.10;99.90
43679;DHT22;29279;50.858;4.392;2023-01-15T15:58:30;6.10;99.90
43679;DHT22;29279;50.858;4.392;2023-01-15T16:00:57;6.20;99.90
43679;DHT22;29279;50.858;4.392;2023-01-15T16:03:25;6.10;99.90
43679;DHT22;29279;50.858;4.392;2023-01-15T16:06:03;6.10;99.90
43679;DHT22;29279;50.858;4.392;2023-01-15T16:08:31;6.00;99.90
43679;DHT22;29279;50.858;4.392;2023-01-15T16:10:59;6.10;99.90
43679;DHT22;29279;50.858;4.392;2023-01-15T16:13:39;6.00;99.90
43679;DHT22;29279;50.858;4.392;2023-01-15T16:16:06;5.90;99.90
43679;DHT22;29279;50.858;4.392;2023-01-15T16:18:42;5.80;99.90
43679;DHT22;29279;50.858;4.392;2023-01-15T16:21:20;5.80;99.90
43679;DHT22;29279;50.858;4.392;2023-01-15T16:24:01;5.80;99.90
43679;DHT22;29279;50.858;4.392;2023-01-15T16:26:42;5.90;99.90
43679;DHT22;29279;50.858;4.392;2023-01-15T16:29:30;5.90;99.90
43679;DHT22;29279;50.858;4.392;2023-01-15T16:31:56;5.90;99.90
43679;DHT22;29279;50.858;4.392;2023-01-15T16:34:33;5.90;99.90
43679;DHT22;29279;50.858;4.392;2023-01-15T16:36:59;5.90;99.90
43679;DHT22;29279;50.858;4.392;2023-01-15T16:41:54;5.80;99.90
43679;DHT22;29279;50.858;4.392;2023-01-15T16:44:37;5.80;99.90
43679;DHT22;29279;50.858;4.392;2023-01-15T16:47:04;5.80;99.90
43679;DHT22;29279;50.858;4.392;2023-01-15T16:49:32;5.90;99.90
43679;DHT22;29279;50.858;4.392;2023-01-15T16:52:00;6.00;99.90
43679;DHT22;29279;50.858;4.392;2023-01-15T16:56:57;6.20;99.90
43679;DHT22;29279;50.858;4.392;2023-01-15T17:01:53;6.20;99.90
43679;DHT22;29279;50.858;4.392;2023-01-15T17:04:34;6.10;99.90
43679;DHT22;29279;50.858;4.392;2023-01-15T17:09:31;5.80;99.90
43679;DHT22;29279;50.858;4.392;2023-01-15T17:12:00;5.70;99.90
43679;DHT22;29279;50.858;4.392;2023-01-15T17:14:27;5.60;99.90
43679;DHT22;29279;50.858;4.392;2023-01-15T17:19:46;5.60;99.90
43679;DHT22;29279;50.858;4.392;2023-01-15T17:22:35;5.60;99.90
43679;DHT22;29279;50.858;4.392;2023-01-15T17:25:00;5.60;99.90
43679;DHT22;29279;50.858;4.392;2023-01-15T17:27:27;5.50;99.90
43679;DHT22;29279;50.858;4.392;2023-01-15T17:29:53;5.50;99.90
43679;DHT22;29279;50.858;4.392;2023-01-15T17:32:38;5.50;99.90
43679;DHT22;29279;50.858;4.392;2023-01-15T17:35:23;5.50;99.90
43679;DHT22;29279;50.858;4.392;2023-01-15T17:37:49;5.60;99.90
43679;DHT22;29279;50.858;4.392;2023-01-15T17:40:15;5.70;99.90
43679;DHT22;29279;50.858;4.392;2023-01-15T17:42:41;5.80;99.90
43679;DHT22;29279;50.858;4.392;2023-01-15T17:45:21;5.80;99.90
43679;DHT22;29279;50.858;4.392;2023-01-15T17:47:48;6.00;99.90
43679;DHT22;29279;50.858;4.392;2023-01-15T17:50:14;6.20;99.90
43679;DHT22;29279;50.858;4.392;2023-01-15T17:52:41;6.20;99.90
43679;DHT22;29279;50.858;4.392;2023-01-15T17:55:27;6.20;99.90
43679;DHT22;29279;50.858;4.392;2023-01-15T17:58:12;6.10;99.90
43679;DHT22;29279;50.858;4.392;2023-01-15T18:00:57;6.20;99.90
43679;DHT22;29279;50.858;4.392;2023-01-15T18:03:47;6.40;99.90
43679;DHT22;29279;50.858;4.392;2023-01-15T18:06:32;6.40;99.90
43679;DHT22;29279;50.858;4.392;2023-01-15T18:09:00;6.40;99.90
43679;DHT22;29279;50.858;4.392;2023-01-15T18:11:27;6.50;99.90
43679;DHT22;29279;50.858;4.392;2023-01-15T18:13:53;6.50;99.90
43679;DHT22;29279;50.858;4.392;2023-01-15T18:16:20;6.50;99.90
43679;DHT22;29279;50.858;4.392;2023-01-15T18:18:46;6.60;99.90
43679;DHT22;29279;50.858;4.392;2023-01-15T18:21:12;6.50;99.90
43679;DHT22;29279;50.858;4.392;2023-01-15T18:23:37;6.40;99.90
43679;DHT22;29279;50.858;4.392;2023-01-15T18:26:07;6.60;99.90
43679;DHT22;29279;50.858;4.392;2023-01-15T18:28:34;6.60;99.90
43679;DHT22;29279;50.858;4.392;2023-01-15T18:31:00;6.70;99.90